sensor_id;sensor_type;location;lat;lon;timestamp;P1;durP1;ratioP1;P2;durP2;ratioP2
19495;SDS011;9888;48.606;9.630;2023-06-14T00:01:01;11.73;;;4.73;;
19495;SDS011;9888;48.606;9.630;2023-06-14T00:03:31;12.23;;;5.50;;
19495;SDS011;9888;48.606;9.630;2023-06-14T00:05:58;10.57;;;4.80;;
19495;SDS011;9888;48.606;9.630;2023-06-14T00:08:29;11.67;;;4.87;;
19495;SDS011;9888;48.606;9.630;2023-06-14T00:11:02;11.40;;;5.17;;
19495;SDS011;9888;48.606;9.630;2023-06-14T00:13:33;11.47;;;5.00;;
19495;SDS011;9888;48.606;9.630;2023-06-14T00:16:01;14.23;;;5.40;;
19495;SDS011;9888;48.606;9.630;2023-06-14T00:18:29;14.73;;;5.20;;
19495;SDS011;9888;48.606;9.630;2023-06-14T00:20:58;11.73;;;5.23;;
19495;SDS011;9888;48.606;9.630;2023-06-14T00:23:29;10.90;;;4.87;;
19495;SDS011;9888;48.606;9.630;2023-06-14T00:25:56;13.03;;;5.00;;
19495;SDS011;9888;48.606;9.630;2023-06-14T00:28:23;12.40;;;5.10;;
19495;SDS011;9888;48.606;9.630;2023-06-14T00:30:50;11.53;;;5.10;;
19495;SDS011;9888;48.606;9.630;2023-06-14T00:33:18;11.50;;;5.63;;
19495;SDS011;9888;48.606;9.630;2023-06-14T00:35:44;11.30;;;4.90;;
19495;SDS011;9888;48.606;9.630;2023-06-14T00:38:12;11.97;;;5.10;;
19495;SDS011;9888;48.606;9.630;2023-06-14T00:40:40;12.60;;;5.30;;
19495;SDS011;9888;48.606;9.630;2023-06-14T00:43:08;14.13;;;5.37;;
19495;SDS011;9888;48.606;9.630;2023-06-14T00:45:37;12.60;;;5.10;;
19495;SDS011;9888;48.606;9.630;2023-06-14T00:48:07;10.90;;;4.90;;
19495;SDS011;9888;48.606;9.630;2023-06-14T00:50:36;10.30;;;4.40;;
19495;SDS011;9888;48.606;9.630;2023-06-14T00:53:06;11.70;;;5.00;;
19495;SDS011;9888;48.606;9.630;2023-06-14T00:55:33;11.90;;;4.87;;
19495;SDS011;9888;48.606;9.630;2023-06-14T00:58:02;12.47;;;5.73;;
19495;SDS011;9888;48.606;9.630;2023-06-14T01:00:30;12.13;;;5.33;;
19495;SDS011;9888;48.606;9.630;2023-06-14T01:02:59;10.77;;;4.47;;
19495;SDS011;9888;48.606;9.630;2023-06-14T01:05:27;14.10;;;5.37;;
19495;SDS011;9888;48.606;9.630;2023-06-14T01:15:47;14.07;;;4.87;;
19495;SDS011;9888;48.606;9.630;2023-06-14T01:18:22;10.50;;;4.53;;
19495;SDS011;9888;48.606;9.630;2023-06-14T01:44:40;10.43;;;5.07;;
19495;SDS011;9888;48.606;9.630;2023-06-14T01:47:10;11.87;;;5.60;;
19495;SDS011;9888;48.606;9.630;2023-06-14T01:49:46;10.63;;;5.13;;
19495;SDS011;9888;48.606;9.630;2023-06-14T01:55:23;12.13;;;5.37;;
19495;SDS011;9888;48.606;9.630;2023-06-14T01:57:53;13.03;;;5.50;;
19495;SDS011;9888;48.606;9.630;2023-06-14T02:00:26;11.50;;;5.07;;
19495;SDS011;9888;48.606;9.630;2023-06-14T02:02:53;11.20;;;5.20;;
19495;SDS011;9888;48.606;9.630;2023-06-14T02:05:28;10.10;;;4.87;;
19495;SDS011;9888;48.606;9.630;2023-06-14T02:07:56;12.33;;;5.40;;
19495;SDS011;9888;48.606;9.630;2023-06-14T02:10:23;11.30;;;5.17;;
19495;SDS011;9888;48.606;9.630;2023-06-14T02:12:54;13.37;;;5.60;;
19495;SDS011;9888;48.606;9.630;2023-06-14T02:15:28;12.63;;;5.37;;
19495;SDS011;9888;48.606;9.630;2023-06-14T02:18:00;12.57;;;5.00;;
19495;SDS011;9888;48.606;9.630;2023-06-14T03:04:29;12.63;;;4.70;;
19495;SDS011;9888;48.606;9.630;2023-06-14T03:07:04;10.87;;;4.67;;
19495;SDS011;9888;48.606;9.630;2023-06-14T03:09:35;14.70;;;5.33;;
19495;SDS011;9888;48.606;9.630;2023-06-14T03:12:04;11.77;;;4.97;;
19495;SDS011;9888;48.606;9.630;2023-06-14T03:38:09;11.60;;;5.40;;
19495;SDS011;9888;48.606;9.630;2023-06-14T03:40:36;12.07;;;4.97;;
19495;SDS011;9888;48.606;9.630;2023-06-14T03:43:03;9.83;;;4.73;;
19495;SDS011;9888;48.606;9.630;2023-06-14T04:05:41;26.93;;;7.13;;
19495;SDS011;9888;48.606;9.630;2023-06-14T04:08:10;16.70;;;6.70;;
19495;SDS011;9888;48.606;9.630;2023-06-14T04:13:45;14.77;;;5.67;;
19495;SDS011;9888;48.606;9.630;2023-06-14T04:16:13;14.27;;;5.23;;
19495;SDS011;9888;48.606;9.630;2023-06-14T04:18:40;13.67;;;5.30;;
19495;SDS011;9888;48.606;9.630;2023-06-14T04:21:07;12.57;;;5.57;;
19495;SDS011;9888;48.606;9.630;2023-06-14T04:23:34;12.60;;;5.63;;
19495;SDS011;9888;48.606;9.630;2023-06-14T04:26:04;13.70;;;6.10;;
19495;SDS011;9888;48.606;9.630;2023-06-14T04:28:36;14.03;;;5.43;;
19495;SDS011;9888;48.606;9.630;2023-06-14T04:31:07;12.70;;;5.50;;
19495;SDS011;9888;48.606;9.630;2023-06-14T04:33:37;12.57;;;5.13;;
19495;SDS011;9888;48.606;9.630;2023-06-14T04:36:12;11.50;;;5.37;;
19495;SDS011;9888;48.606;9.630;2023-06-14T04:38:45;13.17;;;5.97;;
19495;SDS011;9888;48.606;9.630;2023-06-14T04:41:18;24.43;;;5.73;;
19495;SDS011;9888;48.606;9.630;2023-06-14T04:43:48;18.47;;;6.17;;
19495;SDS011;9888;48.606;9.630;2023-06-14T04:46:15;20.40;;;6.00;;
19495;SDS011;9888;48.606;9.630;2023-06-14T04:48:42;19.70;;;6.67;;
19495;SDS011;9888;48.606;9.630;2023-06-14T04:51:10;18.77;;;6.23;;
19495;SDS011;9888;48.606;9.630;2023-06-14T04:53:39;16.70;;;6.60;;
19495;SDS011;9888;48.606;9.630;2023-06-14T04:56:08;18.17;;;6.67;;
19495;SDS011;9888;48.606;9.630;2023-06-14T04:58:40;15.63;;;6.30;;
19495;SDS011;9888;48.606;9.630;2023-06-14T05:01:08;20.63;;;7.00;;
19495;SDS011;9888;48.606;9.630;2023-06-14T05:03:38;23.13;;;7.17;;
19495;SDS011;9888;48.606;9.630;2023-06-14T05:06:07;18.53;;;6.20;;
19495;SDS011;9888;48.606;9.630;2023-06-14T05:08:35;21.83;;;7.30;;
19495;SDS011;9888;48.606;9.630;2023-06-14T05:11:03;26.00;;;7.60;;
19495;SDS011;9888;48.606;9.630;2023-06-14T05:13:31;15.20;;;7.20;;
19495;SDS011;9888;48.606;9.630;2023-06-14T05:16:00;26.37;;;6.80;;
19495;SDS011;9888;48.606;9.630;2023-06-14T05:28:23;23.53;;;6.53;;
19495;SDS011;9888;48.606;9.630;2023-06-14T05:34:58;12.43;;;5.80;;
19495;SDS011;9888;48.606;9.630;2023-06-14T05:58:33;16.50;;;6.13;;
19495;SDS011;9888;48.606;9.630;2023-06-14T06:01:00;11.47;;;5.60;;
19495;SDS011;9888;48.606;9.630;2023-06-14T06:03:31;13.67;;;6.90;;
19495;SDS011;9888;48.606;9.630;2023-06-14T06:05:59;16.50;;;6.60;;
19495;SDS011;9888;48.606;9.630;2023-06-14T06:08:28;15.60;;;6.33;;
19495;SDS011;9888;48.606;9.630;2023-06-14T06:21:03;13.80;;;5.80;;
19495;SDS011;9888;48.606;9.630;2023-06-14T06:26:53;16.40;;;6.00;;
19495;SDS011;9888;48.606;9.630;2023-06-14T07:02:59;11.73;;;5.67;;
19495;SDS011;9888;48.606;9.630;2023-06-14T07:05:31;18.80;;;6.50;;
19495;SDS011;9888;48.606;9.630;2023-06-14T07:08:02;18.83;;;6.17;;
19495;SDS011;9888;48.606;9.630;2023-06-14T07:10:31;12.83;;;6.37;;
19495;SDS011;9888;48.606;9.630;2023-06-14T07:13:01;14.30;;;5.90;;
19495;SDS011;9888;48.606;9.630;2023-06-14T07:15:47;11.33;;;6.17;;
19495;SDS011;9888;48.606;9.630;2023-06-14T07:18:58;12.83;;;6.47;;
19495;SDS011;9888;48.606;9.630;2023-06-14T07:24:55;16.60;;;7.30;;
19495;SDS011;9888;48.606;9.630;2023-06-14T07:27:35;13.40;;;6.60;;
19495;SDS011;9888;48.606;9.630;2023-06-14T07:30:04;18.03;;;6.00;;
19495;SDS011;9888;48.606;9.630;2023-06-14T07:32:34;14.90;;;6.47;;
19495;SDS011;9888;48.606;9.630;2023-06-14T07:35:04;13.17;;;7.00;;
19495;SDS011;9888;48.606;9.630;2023-06-14T07:37:36;12.90;;;6.77;;
19495;SDS011;9888;48.606;9.630;2023-06-14T07:40:06;15.13;;;6.50;;
19495;SDS011;9888;48.606;9.630;2023-06-14T07:42:46;15.57;;;7.00;;
19495;SDS011;9888;48.606;9.630;2023-06-14T07:48:21;16.90;;;7.17;;
19495;SDS011;9888;48.606;9.630;2023-06-14T07:51:01;12.83;;;6.67;;
19495;SDS011;9888;48.606;9.630;2023-06-14T07:53:30;14.43;;;7.00;;
19495;SDS011;9888;48.606;9.630;2023-06-14T07:55:59;12.60;;;6.47;;
19495;SDS011;9888;48.606;9.630;2023-06-14T07:58:28;13.70;;;6.20;;
19495;SDS011;9888;48.606;9.630;2023-06-14T08:01:05;17.57;;;6.40;;
19495;SDS011;9888;48.606;9.630;2023-06-14T08:07:02;11.67;;;5.70;;
19495;SDS011;9888;48.606;9.630;2023-06-14T08:12:41;16.83;;;5.90;;
19495;SDS011;9888;48.606;9.630;2023-06-14T08:15:44;20.10;;;6.47;;
19495;SDS011;9888;48.606;9.630;2023-06-14T08:18:54;15.37;;;6.53;;
19495;SDS011;9888;48.606;9.630;2023-06-14T08:21:24;14.90;;;6.50;;
19495;SDS011;9888;48.606;9.630;2023-06-14T08:27:19;12.83;;;7.00;;
19495;SDS011;9888;48.606;9.630;2023-06-14T08:32:57;13.77;;;6.93;;
19495;SDS011;9888;48.606;9.630;2023-06-14T08:39:00;19.40;;;7.30;;
19495;SDS011;9888;48.606;9.630;2023-06-14T08:41:48;34.07;;;8.53;;
19495;SDS011;9888;48.606;9.630;2023-06-14T08:50:45;13.90;;;7.13;;
19495;SDS011;9888;48.606;9.630;2023-06-14T08:53:14;13.57;;;7.33;;
19495;SDS011;9888;48.606;9.630;2023-06-14T08:55:48;12.47;;;6.83;;
19495;SDS011;9888;48.606;9.630;2023-06-14T08:58:34;14.57;;;6.80;;
19495;SDS011;9888;48.606;9.630;2023-06-14T09:01:05;15.20;;;6.87;;
19495;SDS011;9888;48.606;9.630;2023-06-14T09:03:50;18.53;;;7.47;;
19495;SDS011;9888;48.606;9.630;2023-06-14T09:07:12;16.33;;;6.77;;
19495;SDS011;9888;48.606;9.630;2023-06-14T09:13:09;16.13;;;8.00;;
19495;SDS011;9888;48.606;9.630;2023-06-14T09:15:49;24.13;;;7.83;;
19495;SDS011;9888;48.606;9.630;2023-06-14T09:18:40;12.60;;;8.10;;
19495;SDS011;9888;48.606;9.630;2023-06-14T09:21:22;13.80;;;7.10;;
19495;SDS011;9888;48.606;9.630;2023-06-14T09:23:52;23.70;;;7.00;;
19495;SDS011;9888;48.606;9.630;2023-06-14T09:26:25;14.30;;;6.90;;
19495;SDS011;9888;48.606;9.630;2023-06-14T09:28:53;15.70;;;7.27;;
19495;SDS011;9888;48.606;9.630;2023-06-14T09:31:23;13.70;;;7.87;;
19495;SDS011;9888;48.606;9.630;2023-06-14T09:33:54;13.80;;;7.63;;
19495;SDS011;9888;48.606;9.630;2023-06-14T09:36:22;17.33;;;7.80;;
19495;SDS011;9888;48.606;9.630;2023-06-14T09:38:56;14.83;;;7.90;;
19495;SDS011;9888;48.606;9.630;2023-06-14T09:41:31;19.63;;;8.63;;
19495;SDS011;9888;48.606;9.630;2023-06-14T09:44:02;19.43;;;8.43;;
19495;SDS011;9888;48.606;9.630;2023-06-14T09:46:36;12.73;;;7.07;;
19495;SDS011;9888;48.606;9.630;2023-06-14T09:49:05;30.50;;;8.30;;
19495;SDS011;9888;48.606;9.630;2023-06-14T09:51:36;14.07;;;7.07;;
19495;SDS011;9888;48.606;9.630;2023-06-14T09:54:19;12.03;;;7.07;;
19495;SDS011;9888;48.606;9.630;2023-06-14T09:56:57;12.33;;;6.73;;
19495;SDS011;9888;48.606;9.630;2023-06-14T09:59:27;12.80;;;6.50;;
19495;SDS011;9888;48.606;9.630;2023-06-14T10:02:35;13.60;;;6.80;;
19495;SDS011;9888;48.606;9.630;2023-06-14T10:05:07;11.70;;;6.37;;
19495;SDS011;9888;48.606;9.630;2023-06-14T10:07:48;11.47;;;7.13;;
19495;SDS011;9888;48.606;9.630;2023-06-14T10:10:19;15.40;;;7.33;;
19495;SDS011;9888;48.606;9.630;2023-06-14T10:12:50;11.90;;;6.67;;
19495;SDS011;9888;48.606;9.630;2023-06-14T10:15:31;12.47;;;7.53;;
19495;SDS011;9888;48.606;9.630;2023-06-14T10:22:21;15.97;;;6.47;;
19495;SDS011;9888;48.606;9.630;2023-06-14T10:24:55;12.90;;;6.23;;
19495;SDS011;9888;48.606;9.630;2023-06-14T10:36:26;10.80;;;6.60;;
19495;SDS011;9888;48.606;9.630;2023-06-14T10:39:00;13.37;;;7.00;;
19495;SDS011;9888;48.606;9.630;2023-06-14T10:41:34;11.97;;;6.50;;
19495;SDS011;9888;48.606;9.630;2023-06-14T10:50:48;17.60;;;8.23;;
19495;SDS011;9888;48.606;9.630;2023-06-14T10:53:40;14.07;;;7.60;;
19495;SDS011;9888;48.606;9.630;2023-06-14T10:56:09;17.47;;;8.50;;
19495;SDS011;9888;48.606;9.630;2023-06-14T10:58:54;13.30;;;7.33;;
19495;SDS011;9888;48.606;9.630;2023-06-14T11:01:25;16.03;;;6.80;;
19495;SDS011;9888;48.606;9.630;2023-06-14T11:03:57;17.87;;;8.60;;
19495;SDS011;9888;48.606;9.630;2023-06-14T11:06:55;12.30;;;7.60;;
19495;SDS011;9888;48.606;9.630;2023-06-14T11:16:00;12.80;;;7.40;;
19495;SDS011;9888;48.606;9.630;2023-06-14T11:18:52;15.30;;;8.80;;
19495;SDS011;9888;48.606;9.630;2023-06-14T11:21:27;12.13;;;7.97;;
19495;SDS011;9888;48.606;9.630;2023-06-14T11:24:09;13.70;;;7.53;;
19495;SDS011;9888;48.606;9.630;2023-06-14T11:26:48;14.10;;;7.90;;
19495;SDS011;9888;48.606;9.630;2023-06-14T11:29:16;12.47;;;7.33;;
19495;SDS011;9888;48.606;9.630;2023-06-14T11:35:11;14.53;;;7.53;;
19495;SDS011;9888;48.606;9.630;2023-06-14T11:37:45;15.63;;;8.10;;
19495;SDS011;9888;48.606;9.630;2023-06-14T11:43:36;14.17;;;7.40;;
19495;SDS011;9888;48.606;9.630;2023-06-14T11:46:14;13.63;;;7.40;;
19495;SDS011;9888;48.606;9.630;2023-06-14T11:52:12;12.83;;;7.03;;
19495;SDS011;9888;48.606;9.630;2023-06-14T11:54:48;21.80;;;7.73;;
19495;SDS011;9888;48.606;9.630;2023-06-14T12:00:37;15.20;;;7.27;;
19495;SDS011;9888;48.606;9.630;2023-06-14T12:03:17;13.07;;;7.57;;
19495;SDS011;9888;48.606;9.630;2023-06-14T12:06:15;14.43;;;7.30;;
19495;SDS011;9888;48.606;9.630;2023-06-14T12:12:08;12.27;;;7.53;;
19495;SDS011;9888;48.606;9.630;2023-06-14T12:14:46;11.97;;;7.60;;
19495;SDS011;9888;48.606;9.630;2023-06-14T12:17:19;12.60;;;7.50;;
19495;SDS011;9888;48.606;9.630;2023-06-14T12:19:51;12.90;;;7.43;;
19495;SDS011;9888;48.606;9.630;2023-06-14T12:22:20;13.83;;;7.30;;
19495;SDS011;9888;48.606;9.630;2023-06-14T12:24:51;12.73;;;7.10;;
19495;SDS011;9888;48.606;9.630;2023-06-14T12:27:21;11.30;;;7.17;;
19495;SDS011;9888;48.606;9.630;2023-06-14T12:30:02;13.00;;;7.00;;
19495;SDS011;9888;48.606;9.630;2023-06-14T12:32:32;13.50;;;7.40;;
19495;SDS011;9888;48.606;9.630;2023-06-14T12:35:12;11.30;;;7.20;;
19495;SDS011;9888;48.606;9.630;2023-06-14T12:41:20;14.87;;;7.97;;
19495;SDS011;9888;48.606;9.630;2023-06-14T12:43:53;11.70;;;7.53;;
19495;SDS011;9888;48.606;9.630;2023-06-14T12:47:03;12.90;;;6.80;;
19495;SDS011;9888;48.606;9.630;2023-06-14T12:52:52;18.90;;;8.13;;
19495;SDS011;9888;48.606;9.630;2023-06-14T12:59:09;12.33;;;7.53;;
19495;SDS011;9888;48.606;9.630;2023-06-14T13:05:00;14.30;;;7.20;;
19495;SDS011;9888;48.606;9.630;2023-06-14T13:07:31;13.03;;;6.97;;
19495;SDS011;9888;48.606;9.630;2023-06-14T13:13:27;20.03;;;7.67;;
19495;SDS011;9888;48.606;9.630;2023-06-14T13:16:00;15.13;;;7.20;;
19495;SDS011;9888;48.606;9.630;2023-06-14T13:18:37;12.80;;;7.17;;
19495;SDS011;9888;48.606;9.630;2023-06-14T13:21:20;10.60;;;6.90;;
19495;SDS011;9888;48.606;9.630;2023-06-14T13:23:48;18.17;;;8.40;;
19495;SDS011;9888;48.606;9.630;2023-06-14T13:26:17;12.23;;;7.63;;
19495;SDS011;9888;48.606;9.630;2023-06-14T13:28:45;29.47;;;8.23;;
19495;SDS011;9888;48.606;9.630;2023-06-14T13:31:14;12.70;;;7.67;;
19495;SDS011;9888;48.606;9.630;2023-06-14T13:33:42;11.57;;;7.07;;
19495;SDS011;9888;48.606;9.630;2023-06-14T13:39:25;14.13;;;7.20;;
19495;SDS011;9888;48.606;9.630;2023-06-14T13:44:58;11.43;;;7.60;;
19495;SDS011;9888;48.606;9.630;2023-06-14T13:47:25;13.63;;;7.63;;
19495;SDS011;9888;48.606;9.630;2023-06-14T13:49:53;11.60;;;7.33;;
19495;SDS011;9888;48.606;9.630;2023-06-14T13:52:30;11.53;;;6.90;;
19495;SDS011;9888;48.606;9.630;2023-06-14T13:55:01;14.00;;;7.10;;
19495;SDS011;9888;48.606;9.630;2023-06-14T13:57:34;12.07;;;7.63;;
19495;SDS011;9888;48.606;9.630;2023-06-14T14:00:09;13.13;;;7.77;;
19495;SDS011;9888;48.606;9.630;2023-06-14T14:05:31;15.77;;;7.30;;
19495;SDS011;9888;48.606;9.630;2023-06-14T14:08:00;12.50;;;8.00;;
19495;SDS011;9888;48.606;9.630;2023-06-14T14:10:35;12.60;;;7.57;;
19495;SDS011;9888;48.606;9.630;2023-06-14T14:13:02;14.17;;;7.30;;
19495;SDS011;9888;48.606;9.630;2023-06-14T14:15:30;12.80;;;7.10;;
19495;SDS011;9888;48.606;9.630;2023-06-14T14:18:00;12.17;;;7.50;;
19495;SDS011;9888;48.606;9.630;2023-06-14T14:20:29;15.23;;;7.17;;
19495;SDS011;9888;48.606;9.630;2023-06-14T14:22:57;12.70;;;7.30;;
19495;SDS011;9888;48.606;9.630;2023-06-14T14:25:24;13.97;;;7.17;;
19495;SDS011;9888;48.606;9.630;2023-06-14T14:27:54;12.67;;;7.40;;
19495;SDS011;9888;48.606;9.630;2023-06-14T14:30:22;10.60;;;6.60;;
19495;SDS011;9888;48.606;9.630;2023-06-14T14:33:10;13.47;;;7.47;;
19495;SDS011;9888;48.606;9.630;2023-06-14T14:35:43;14.87;;;7.60;;
19495;SDS011;9888;48.606;9.630;2023-06-14T14:38:14;15.97;;;7.83;;
19495;SDS011;9888;48.606;9.630;2023-06-14T14:40:42;12.20;;;6.63;;
19495;SDS011;9888;48.606;9.630;2023-06-14T14:43:09;13.70;;;7.10;;
19495;SDS011;9888;48.606;9.630;2023-06-14T14:45:45;13.13;;;7.80;;
19495;SDS011;9888;48.606;9.630;2023-06-14T14:48:13;13.83;;;8.03;;
19495;SDS011;9888;48.606;9.630;2023-06-14T14:50:46;12.70;;;7.20;;
19495;SDS011;9888;48.606;9.630;2023-06-14T14:53:42;15.83;;;7.70;;
19495;SDS011;9888;48.606;9.630;2023-06-14T14:56:12;15.27;;;7.20;;
19495;SDS011;9888;48.606;9.630;2023-06-14T15:01:44;14.70;;;6.90;;
19495;SDS011;9888;48.606;9.630;2023-06-14T15:04:22;13.40;;;7.73;;
19495;SDS011;9888;48.606;9.630;2023-06-14T15:09:49;24.90;;;7.63;;
19495;SDS011;9888;48.606;9.630;2023-06-14T15:12:26;12.93;;;7.43;;
19495;SDS011;9888;48.606;9.630;2023-06-14T15:15:37;11.23;;;6.90;;
19495;SDS011;9888;48.606;9.630;2023-06-14T15:18:07;15.30;;;8.30;;
19495;SDS011;9888;48.606;9.630;2023-06-14T15:20:39;22.27;;;8.10;;
19495;SDS011;9888;48.606;9.630;2023-06-14T15:33:52;16.53;;;8.20;;
19495;SDS011;9888;48.606;9.630;2023-06-14T15:36:21;11.37;;;7.00;;
19495;SDS011;9888;48.606;9.630;2023-06-14T15:38:51;15.50;;;6.97;;
19495;SDS011;9888;48.606;9.630;2023-06-14T15:41:30;12.70;;;7.30;;
19495;SDS011;9888;48.606;9.630;2023-06-14T15:44:04;13.40;;;7.60;;
19495;SDS011;9888;48.606;9.630;2023-06-14T15:46:44;48.83;;;12.50;;
19495;SDS011;9888;48.606;9.630;2023-06-14T15:49:13;16.43;;;7.30;;
19495;SDS011;9888;48.606;9.630;2023-06-14T15:51:42;21.07;;;9.90;;
19495;SDS011;9888;48.606;9.630;2023-06-14T15:54:21;25.37;;;12.73;;
19495;SDS011;9888;48.606;9.630;2023-06-14T15:56:58;14.33;;;8.10;;
19495;SDS011;9888;48.606;9.630;2023-06-14T16:05:52;15.20;;;7.30;;
19495;SDS011;9888;48.606;9.630;2023-06-14T16:08:21;14.30;;;7.80;;
19495;SDS011;9888;48.606;9.630;2023-06-14T16:10:52;12.00;;;7.23;;
19495;SDS011;9888;48.606;9.630;2023-06-14T16:13:41;13.60;;;7.50;;
19495;SDS011;9888;48.606;9.630;2023-06-14T16:16:19;14.83;;;8.17;;
19495;SDS011;9888;48.606;9.630;2023-06-14T16:22:17;20.03;;;7.30;;
19495;SDS011;9888;48.606;9.630;2023-06-14T16:28:19;14.30;;;7.87;;
19495;SDS011;9888;48.606;9.630;2023-06-14T16:30:47;12.97;;;7.03;;
19495;SDS011;9888;48.606;9.630;2023-06-14T16:33:23;13.73;;;7.40;;
19495;SDS011;9888;48.606;9.630;2023-06-14T16:35:50;19.33;;;6.73;;
19495;SDS011;9888;48.606;9.630;2023-06-14T16:38:17;11.57;;;7.30;;
19495;SDS011;9888;48.606;9.630;2023-06-14T16:40:51;15.13;;;6.37;;
19495;SDS011;9888;48.606;9.630;2023-06-14T16:43:18;12.33;;;6.80;;
19495;SDS011;9888;48.606;9.630;2023-06-14T16:45:46;13.47;;;6.83;;
19495;SDS011;9888;48.606;9.630;2023-06-14T16:55:12;13.60;;;7.60;;
19495;SDS011;9888;48.606;9.630;2023-06-14T16:57:44;13.20;;;7.50;;
19495;SDS011;9888;48.606;9.630;2023-06-14T17:00:12;11.27;;;6.80;;
19495;SDS011;9888;48.606;9.630;2023-06-14T17:02:39;15.40;;;7.00;;
19495;SDS011;9888;48.606;9.630;2023-06-14T17:05:08;13.40;;;7.00;;
19495;SDS011;9888;48.606;9.630;2023-06-14T17:07:35;13.47;;;7.07;;
19495;SDS011;9888;48.606;9.630;2023-06-14T17:10:06;13.70;;;7.30;;
19495;SDS011;9888;48.606;9.630;2023-06-14T17:12:33;16.27;;;7.80;;
19495;SDS011;9888;48.606;9.630;2023-06-14T17:21:31;12.43;;;6.80;;
19495;SDS011;9888;48.606;9.630;2023-06-14T17:24:05;11.53;;;6.80;;
19495;SDS011;9888;48.606;9.630;2023-06-14T17:26:35;11.60;;;6.90;;
19495;SDS011;9888;48.606;9.630;2023-06-14T17:29:04;12.20;;;6.60;;
19495;SDS011;9888;48.606;9.630;2023-06-14T17:31:33;15.00;;;7.00;;
19495;SDS011;9888;48.606;9.630;2023-06-14T17:34:00;13.47;;;7.37;;
19495;SDS011;9888;48.606;9.630;2023-06-14T17:36:30;14.90;;;7.07;;
19495;SDS011;9888;48.606;9.630;2023-06-14T17:38:59;14.40;;;7.37;;
19495;SDS011;9888;48.606;9.630;2023-06-14T17:41:28;12.60;;;7.40;;
19495;SDS011;9888;48.606;9.630;2023-06-14T17:44:00;22.63;;;7.60;;
19495;SDS011;9888;48.606;9.630;2023-06-14T17:46:38;12.87;;;6.27;;
19495;SDS011;9888;48.606;9.630;2023-06-14T17:49:05;13.30;;;7.30;;
19495;SDS011;9888;48.606;9.630;2023-06-14T17:51:36;11.00;;;6.17;;
19495;SDS011;9888;48.606;9.630;2023-06-14T17:54:08;21.50;;;6.47;;
19495;SDS011;9888;48.606;9.630;2023-06-14T17:56:35;12.60;;;7.00;;
19495;SDS011;9888;48.606;9.630;2023-06-14T17:59:03;10.90;;;6.27;;
19495;SDS011;9888;48.606;9.630;2023-06-14T18:01:44;13.27;;;6.20;;
19495;SDS011;9888;48.606;9.630;2023-06-14T18:04:12;11.63;;;6.17;;
19495;SDS011;9888;48.606;9.630;2023-06-14T18:06:42;19.53;;;7.03;;
19495;SDS011;9888;48.606;9.630;2023-06-14T18:09:11;11.77;;;7.17;;
19495;SDS011;9888;48.606;9.630;2023-06-14T18:11:40;11.90;;;6.50;;
19495;SDS011;9888;48.606;9.630;2023-06-14T18:16:54;14.27;;;6.10;;
19495;SDS011;9888;48.606;9.630;2023-06-14T18:19:21;20.97;;;6.97;;
19495;SDS011;9888;48.606;9.630;2023-06-14T18:21:54;14.77;;;6.53;;
19495;SDS011;9888;48.606;9.630;2023-06-14T18:24:25;13.93;;;6.10;;
19495;SDS011;9888;48.606;9.630;2023-06-14T18:26:54;22.17;;;6.60;;
19495;SDS011;9888;48.606;9.630;2023-06-14T18:29:24;11.40;;;6.40;;
19495;SDS011;9888;48.606;9.630;2023-06-14T18:31:59;14.10;;;6.37;;
19495;SDS011;9888;48.606;9.630;2023-06-14T18:34:30;10.27;;;5.30;;
19495;SDS011;9888;48.606;9.630;2023-06-14T18:37:03;14.73;;;6.50;;
19495;SDS011;9888;48.606;9.630;2023-06-14T18:39:42;15.13;;;6.20;;
19495;SDS011;9888;48.606;9.630;2023-06-14T18:42:11;18.83;;;7.13;;
19495;SDS011;9888;48.606;9.630;2023-06-14T18:44:40;16.23;;;6.60;;
19495;SDS011;9888;48.606;9.630;2023-06-14T18:47:08;13.07;;;5.90;;
19495;SDS011;9888;48.606;9.630;2023-06-14T18:49:36;23.17;;;6.40;;
19495;SDS011;9888;48.606;9.630;2023-06-14T18:55:10;13.30;;;6.10;;
19495;SDS011;9888;48.606;9.630;2023-06-14T18:57:40;16.60;;;6.10;;
19495;SDS011;9888;48.606;9.630;2023-06-14T19:00:07;12.67;;;6.30;;
19495;SDS011;9888;48.606;9.630;2023-06-14T19:02:35;11.53;;;6.20;;
19495;SDS011;9888;48.606;9.630;2023-06-14T19:05:05;13.53;;;6.20;;
19495;SDS011;9888;48.606;9.630;2023-06-14T19:07:36;12.57;;;6.30;;
19495;SDS011;9888;48.606;9.630;2023-06-14T19:10:04;15.70;;;6.77;;
19495;SDS011;9888;48.606;9.630;2023-06-14T19:12:31;12.60;;;6.20;;
19495;SDS011;9888;48.606;9.630;2023-06-14T19:15:00;12.37;;;5.80;;
19495;SDS011;9888;48.606;9.630;2023-06-14T19:17:35;16.43;;;6.77;;
19495;SDS011;9888;48.606;9.630;2023-06-14T19:20:34;11.87;;;6.00;;
19495;SDS011;9888;48.606;9.630;2023-06-14T19:23:01;11.47;;;6.10;;
19495;SDS011;9888;48.606;9.630;2023-06-14T19:25:37;13.77;;;6.00;;
19495;SDS011;9888;48.606;9.630;2023-06-14T19:28:11;13.50;;;6.10;;
19495;SDS011;9888;48.606;9.630;2023-06-14T19:30:38;13.00;;;6.00;;
19495;SDS011;9888;48.606;9.630;2023-06-14T19:33:15;14.53;;;5.80;;
19495;SDS011;9888;48.606;9.630;2023-06-14T19:35:44;12.40;;;6.70;;
19495;SDS011;9888;48.606;9.630;2023-06-14T19:38:11;11.80;;;6.03;;
19495;SDS011;9888;48.606;9.630;2023-06-14T19:40:44;12.93;;;6.10;;
19495;SDS011;9888;48.606;9.630;2023-06-14T19:43:15;25.83;;;7.13;;
19495;SDS011;9888;48.606;9.630;2023-06-14T19:45:46;14.20;;;7.10;;
19495;SDS011;9888;48.606;9.630;2023-06-14T19:48:14;19.30;;;6.73;;
19495;SDS011;9888;48.606;9.630;2023-06-14T19:50:49;14.87;;;6.60;;
19495;SDS011;9888;48.606;9.630;2023-06-14T19:53:34;18.47;;;5.63;;
19495;SDS011;9888;48.606;9.630;2023-06-14T19:56:06;13.53;;;5.73;;
19495;SDS011;9888;48.606;9.630;2023-06-14T19:58:34;14.67;;;5.93;;
19495;SDS011;9888;48.606;9.630;2023-06-14T20:01:04;13.57;;;6.53;;
19495;SDS011;9888;48.606;9.630;2023-06-14T20:03:39;13.03;;;5.87;;
19495;SDS011;9888;48.606;9.630;2023-06-14T20:06:15;15.57;;;5.77;;
19495;SDS011;9888;48.606;9.630;2023-06-14T20:08:53;13.30;;;5.73;;
19495;SDS011;9888;48.606;9.630;2023-06-14T20:11:25;11.30;;;6.13;;
19495;SDS011;9888;48.606;9.630;2023-06-14T20:13:55;13.53;;;6.50;;
19495;SDS011;9888;48.606;9.630;2023-06-14T20:16:22;17.23;;;6.90;;
19495;SDS011;9888;48.606;9.630;2023-06-14T20:18:53;12.57;;;6.50;;
19495;SDS011;9888;48.606;9.630;2023-06-14T20:21:26;14.07;;;6.50;;
19495;SDS011;9888;48.606;9.630;2023-06-14T20:24:03;15.70;;;7.20;;
19495;SDS011;9888;48.606;9.630;2023-06-14T20:26:30;11.63;;;6.03;;
19495;SDS011;9888;48.606;9.630;2023-06-14T20:29:00;12.13;;;6.50;;
19495;SDS011;9888;48.606;9.630;2023-06-14T20:31:34;13.63;;;6.27;;
19495;SDS011;9888;48.606;9.630;2023-06-14T20:34:02;12.93;;;6.13;;
19495;SDS011;9888;48.606;9.630;2023-06-14T20:36:34;13.97;;;6.23;;
19495;SDS011;9888;48.606;9.630;2023-06-14T20:39:03;10.77;;;5.50;;
19495;SDS011;9888;48.606;9.630;2023-06-14T20:41:32;12.90;;;6.50;;
19495;SDS011;9888;48.606;9.630;2023-06-14T20:44:00;11.53;;;5.93;;
19495;SDS011;9888;48.606;9.630;2023-06-14T20:46:27;12.50;;;5.70;;
19495;SDS011;9888;48.606;9.630;2023-06-14T20:49:13;12.33;;;5.57;;
19495;SDS011;9888;48.606;9.630;2023-06-14T20:51:45;11.90;;;6.17;;
19495;SDS011;9888;48.606;9.630;2023-06-14T20:54:13;12.40;;;5.87;;
19495;SDS011;9888;48.606;9.630;2023-06-14T20:56:43;15.47;;;6.40;;
19495;SDS011;9888;48.606;9.630;2023-06-14T20:59:12;12.23;;;6.10;;
19495;SDS011;9888;48.606;9.630;2023-06-14T21:01:45;11.03;;;5.93;;
19495;SDS011;9888;48.606;9.630;2023-06-14T21:04:13;13.87;;;6.77;;
19495;SDS011;9888;48.606;9.630;2023-06-14T21:06:44;11.50;;;6.00;;
19495;SDS011;9888;48.606;9.630;2023-06-14T21:09:13;13.00;;;6.67;;
19495;SDS011;9888;48.606;9.630;2023-06-14T21:11:42;12.90;;;6.13;;
19495;SDS011;9888;48.606;9.630;2023-06-14T21:14:16;13.00;;;6.83;;
19495;SDS011;9888;48.606;9.630;2023-06-14T21:16:43;18.50;;;6.80;;
19495;SDS011;9888;48.606;9.630;2023-06-14T21:19:13;13.40;;;6.37;;